createdAt,value
2019-05-05T00:00:14.343Z,4.10
2019-05-05T00:03:00.245Z,4.20
2019-05-05T00:05:31.300Z,4.10
2019-05-05T00:08:00.360Z,4.00
2019-05-05T00:10:34.789Z,4.00
2019-05-05T00:13:08.396Z,4.00
2019-05-05T00:15:41.172Z,3.90
2019-05-05T00:18:10.520Z,3.80
2019-05-05T00:20:39.547Z,3.80
2019-05-05T00:23:08.851Z,3.70
2019-05-05T00:25:37.877Z,3.70
2019-05-05T00:28:06.943Z,3.70
2019-05-05T00:30:36.040Z,3.60
2019-05-05T00:33:05.645Z,3.80
2019-05-05T00:35:34.834Z,3.70
2019-05-05T00:38:05.088Z,3.70
2019-05-05T00:40:35.277Z,3.60
2019-05-05T00:43:05.341Z,3.60
2019-05-05T00:45:35.605Z,3.50
2019-05-05T00:48:18.440Z,2.90
2019-05-05T00:50:47.539Z,2.60
2019-05-05T00:53:16.576Z,2.30
2019-05-05T00:55:45.610Z,2.50
2019-05-05T00:58:14.659Z,2.60
2019-05-05T01:00:48.185Z,2.20
2019-05-05T01:03:18.791Z,2.00
2019-05-05T01:05:55.338Z,2.20
2019-05-05T01:08:30.539Z,2.10
2019-05-05T01:10:59.710Z,2.10
2019-05-05T01:13:28.752Z,2.20
2019-05-05T01:15:57.859Z,2.50
2019-05-05T01:18:27.047Z,2.60
2019-05-05T01:20:56.137Z,2.70
2019-05-05T01:23:25.291Z,2.80
2019-05-05T01:25:54.512Z,2.80
2019-05-05T01:28:24.965Z,2.90
2019-05-05T01:30:56.004Z,2.90
2019-05-05T01:33:35.407Z,3.00
2019-05-05T01:36:05.121Z,3.00
2019-05-05T01:38:38.267Z,3.00
2019-05-05T01:41:14.635Z,3.00
2019-05-05T01:43:45.210Z,3.20
2019-05-05T01:46:14.418Z,3.10
2019-05-05T01:48:44.499Z,3.10
2019-05-05T01:51:14.304Z,3.10
2019-05-05T01:53:44.331Z,3.20
2019-05-05T01:56:15.385Z,3.20
2019-05-05T01:58:44.573Z,3.20
2019-05-05T02:01:15.301Z,2.90
2019-05-05T02:03:44.705Z,3.00
2019-05-05T02:06:14.293Z,3.00
2019-05-05T02:08:45.464Z,3.20
2019-05-05T02:11:15.609Z,3.30
2019-05-05T02:13:45.201Z,3.50
2019-05-05T02:16:15.073Z,3.60
2019-05-05T02:18:45.071Z,3.60
2019-05-05T02:21:14.404Z,3.50
2019-05-05T02:23:45.288Z,3.40
2019-05-05T02:26:15.276Z,3.40
2019-05-05T02:28:46.212Z,3.50
2019-05-05T02:31:25.269Z,3.50
2019-05-05T02:33:56.587Z,3.50
2019-05-05T02:36:25.856Z,3.40
2019-05-05T02:38:56.687Z,3.40
2019-05-05T02:41:26.943Z,3.40
2019-05-05T02:43:56.720Z,3.50
2019-05-05T02:46:28.078Z,3.50
2019-05-05T02:48:59.707Z,3.30
2019-05-05T02:51:29.384Z,3.50
2019-05-05T02:54:00.620Z,3.50
2019-05-05T02:56:34.246Z,3.40
2019-05-05T02:59:06.312Z,3.40
2019-05-05T03:01:46.071Z,3.50
2019-05-05T03:04:15.263Z,3.50
2019-05-05T03:06:47.436Z,3.50
2019-05-05T03:09:18.395Z,3.60
2019-05-05T03:11:49.188Z,3.60
2019-05-05T03:14:19.825Z,3.10
2019-05-05T03:16:50.004Z,3.10
2019-05-05T03:19:23.521Z,2.90
2019-05-05T03:21:54.535Z,3.20
2019-05-05T03:24:23.814Z,3.20
2019-05-05T03:26:53.781Z,3.20
2019-05-05T03:29:24.378Z,3.00
2019-05-05T03:31:56.243Z,2.90
2019-05-05T03:34:24.603Z,3.10
2019-05-05T03:36:53.911Z,3.20
2019-05-05T03:39:25.124Z,3.30
2019-05-05T03:42:13.816Z,3.20
2019-05-05T03:45:04.190Z,3.20
2019-05-05T03:47:33.776Z,3.30
2019-05-05T03:50:04.372Z,3.20
2019-05-05T03:52:34.601Z,3.20
2019-05-05T03:55:06.269Z,3.30
2019-05-05T03:57:35.445Z,3.40
2019-05-05T04:00:07.208Z,3.50
2019-05-05T04:02:44.559Z,3.50
2019-05-05T04:05:18.500Z,3.40
2019-05-05T04:07:47.353Z,3.40
2019-05-05T04:10:18.147Z,3.40
2019-05-05T04:12:47.891Z,3.50
2019-05-05T04:15:16.941Z,3.40
2019-05-05T04:18:04.010Z,3.50
2019-05-05T04:20:33.877Z,3.50
2019-05-05T04:23:03.765Z,3.30
2019-05-05T04:25:34.876Z,3.30
2019-05-05T04:28:04.378Z,3.20
2019-05-05T04:30:33.898Z,3.10
2019-05-05T04:33:03.858Z,3.20
2019-05-05T04:35:33.938Z,3.20
2019-05-05T04:38:04.702Z,3.30
2019-05-05T04:40:34.526Z,3.50
2019-05-05T04:43:03.991Z,3.70
2019-05-05T04:45:34.738Z,3.90
2019-05-05T04:48:05.585Z,4.00
2019-05-05T04:50:36.264Z,4.00
2019-05-05T04:53:06.934Z,4.20
2019-05-05T04:55:35.977Z,4.40
2019-05-05T04:58:05.028Z,4.60
2019-05-05T05:00:34.262Z,4.80
2019-05-05T05:03:05.137Z,4.90
2019-05-05T05:05:38.813Z,4.70
2019-05-05T05:08:07.552Z,4.80
2019-05-05T05:10:36.636Z,5.00
2019-05-05T05:13:05.679Z,5.10
2019-05-05T05:15:34.742Z,5.20
2019-05-05T05:18:11.208Z,5.50
2019-05-05T05:20:40.264Z,5.50
2019-05-05T05:23:09.304Z,5.50
2019-05-05T05:25:38.432Z,5.60
2019-05-05T05:28:07.509Z,6.00
2019-05-05T05:30:36.851Z,6.20
2019-05-05T05:33:05.969Z,6.10
2019-05-05T05:35:35.043Z,6.50
2019-05-05T05:38:04.598Z,6.70
2019-05-05T05:40:35.629Z,7.00
2019-05-05T05:43:06.298Z,7.10
2019-05-05T05:45:46.208Z,7.20
2019-05-05T05:48:16.917Z,7.60
2019-05-05T05:50:47.711Z,8.00
2019-05-05T05:53:16.756Z,8.20
2019-05-05T05:55:45.831Z,8.30
2019-05-05T05:58:14.880Z,8.40
2019-05-05T06:00:44.400Z,8.70
2019-05-05T06:03:14.926Z,8.70
2019-05-05T06:05:44.127Z,9.10
2019-05-05T06:08:14.173Z,9.40
2019-05-05T06:10:44.231Z,9.90
2019-05-05T06:13:15.259Z,10.20
2019-05-05T06:15:44.538Z,10.50
2019-05-05T06:18:13.950Z,10.50
2019-05-05T06:20:44.593Z,10.80
2019-05-05T06:23:14.774Z,11.30
2019-05-05T06:25:44.856Z,11.80
2019-05-05T06:28:14.462Z,11.90
2019-05-05T06:30:44.497Z,12.10
2019-05-05T06:33:14.192Z,12.30
2019-05-05T06:35:44.351Z,12.30
2019-05-05T06:38:13.793Z,12.40
2019-05-05T06:41:00.975Z,12.90
2019-05-05T06:43:40.332Z,13.20
2019-05-05T06:46:11.119Z,13.10
2019-05-05T06:48:40.240Z,13.50
2019-05-05T06:51:09.284Z,13.40
2019-05-05T06:53:38.349Z,13.80
2019-05-05T06:56:07.385Z,14.00
2019-05-05T06:58:36.444Z,13.80
2019-05-05T07:01:05.573Z,13.60
2019-05-05T07:03:34.658Z,13.10
2019-05-05T07:06:04.400Z,12.50
2019-05-05T07:08:34.681Z,12.80
2019-05-05T07:11:04.315Z,13.40
2019-05-05T07:13:34.053Z,13.20
2019-05-05T07:16:04.799Z,12.90
2019-05-05T07:18:34.327Z,13.10
2019-05-05T07:21:03.822Z,13.10
2019-05-05T07:23:34.069Z,13.60
2019-05-05T07:26:04.137Z,14.00
2019-05-05T07:28:34.289Z,14.40
2019-05-05T07:31:04.363Z,14.50
2019-05-05T07:33:34.670Z,14.10
2019-05-05T07:36:21.942Z,13.70
2019-05-05T07:38:51.043Z,13.30
2019-05-05T07:41:20.091Z,13.60
2019-05-05T07:43:49.161Z,14.20
2019-05-05T07:46:18.212Z,14.30
2019-05-05T07:48:47.287Z,13.90
2019-05-05T07:51:16.355Z,13.60
2019-05-05T07:53:45.443Z,13.20
2019-05-05T07:56:14.669Z,13.50
2019-05-05T07:58:44.042Z,14.20
2019-05-05T08:01:14.082Z,14.90
2019-05-05T08:03:44.559Z,15.60
2019-05-05T08:06:14.497Z,15.90
2019-05-05T08:08:44.440Z,16.30
2019-05-05T08:11:14.791Z,15.80
2019-05-05T08:13:44.419Z,14.30
2019-05-05T08:16:21.282Z,13.60
2019-05-05T08:18:51.997Z,13.20
2019-05-05T08:21:21.041Z,13.20
2019-05-05T08:23:54.432Z,13.70
2019-05-05T08:26:27.254Z,14.40
2019-05-05T08:29:14.383Z,14.70
2019-05-05T08:32:00.381Z,15.00
2019-05-05T08:34:29.453Z,15.20
2019-05-05T08:36:59.972Z,14.70
2019-05-05T08:39:29.243Z,14.30
2019-05-05T08:41:58.311Z,14.30
2019-05-05T08:44:27.364Z,13.90
2019-05-05T08:46:57.964Z,13.80
2019-05-05T08:49:27.019Z,14.10
2019-05-05T08:51:56.076Z,14.90
2019-05-05T08:54:25.148Z,15.30
2019-05-05T08:56:55.004Z,14.10
2019-05-05T08:59:24.303Z,14.40
2019-05-05T09:02:15.169Z,15.00
2019-05-05T09:04:44.777Z,15.30
2019-05-05T09:07:13.984Z,15.20
2019-05-05T09:09:44.139Z,15.00
2019-05-05T09:12:14.045Z,15.00
2019-05-05T09:14:44.899Z,14.90
2019-05-05T09:17:13.992Z,15.40
2019-05-05T09:19:44.915Z,15.20
2019-05-05T09:22:14.107Z,14.80
2019-05-05T09:24:56.732Z,15.10
2019-05-05T09:27:28.386Z,15.10
2019-05-05T09:29:57.573Z,15.40
2019-05-05T09:32:26.637Z,15.60
2019-05-05T09:34:55.686Z,15.70
2019-05-05T09:37:24.980Z,16.00
2019-05-05T09:39:54.249Z,14.80
2019-05-05T09:42:23.691Z,14.40
2019-05-05T09:44:54.169Z,14.40
2019-05-05T09:47:25.192Z,15.10
2019-05-05T09:49:54.978Z,15.60
2019-05-05T09:52:24.475Z,16.20
2019-05-05T09:54:54.398Z,16.50
2019-05-05T09:57:23.813Z,16.10
2019-05-05T09:59:54.673Z,15.30
2019-05-05T10:02:24.102Z,15.00
2019-05-05T10:04:54.665Z,15.70
2019-05-05T10:07:24.354Z,15.90
2019-05-05T10:09:54.266Z,16.40
2019-05-05T10:12:23.451Z,16.40
2019-05-05T10:14:54.234Z,16.00
2019-05-05T10:17:24.379Z,15.30
2019-05-05T10:19:54.695Z,14.90
2019-05-05T10:22:23.934Z,14.70
2019-05-05T10:24:57.371Z,14.60
2019-05-05T10:27:25.548Z,14.60
2019-05-05T10:29:54.881Z,14.40
2019-05-05T10:32:24.581Z,15.20
2019-05-05T10:34:55.428Z,16.00
2019-05-05T10:37:43.879Z,15.80
2019-05-05T10:40:14.900Z,15.40
2019-05-05T10:42:50.159Z,15.10
2019-05-05T10:45:21.516Z,14.90
2019-05-05T10:47:51.832Z,14.30
2019-05-05T10:50:21.112Z,13.70
2019-05-05T10:52:50.235Z,13.80
2019-05-05T10:55:19.739Z,14.70
2019-05-05T10:57:48.801Z,15.20
2019-05-05T11:00:37.409Z,14.60
2019-05-05T11:03:06.547Z,14.30
2019-05-05T11:05:37.784Z,13.80
2019-05-05T11:08:06.729Z,14.20
2019-05-05T11:10:36.047Z,14.60
2019-05-05T11:13:05.245Z,14.70
2019-05-05T11:15:34.281Z,15.10
2019-05-05T11:18:04.117Z,15.90
2019-05-05T11:20:34.080Z,16.40
2019-05-05T11:23:04.878Z,15.80
2019-05-05T11:25:34.173Z,14.90
2019-05-05T11:28:04.922Z,14.60
2019-05-05T11:30:37.551Z,14.20
2019-05-05T11:33:17.184Z,13.90
2019-05-05T11:35:57.752Z,13.60
2019-05-05T11:38:26.814Z,13.60
2019-05-05T11:40:55.859Z,13.60
2019-05-05T11:43:24.981Z,13.70
2019-05-05T11:45:54.571Z,13.60
2019-05-05T11:48:24.177Z,13.50
2019-05-05T11:50:54.026Z,13.40
2019-05-05T11:53:25.155Z,13.20
2019-05-05T11:55:54.903Z,13.00
2019-05-05T11:58:24.917Z,13.40
2019-05-05T12:00:54.715Z,13.60
2019-05-05T12:03:23.980Z,13.60
2019-05-05T12:05:53.107Z,13.90
2019-05-05T12:08:23.818Z,14.20
2019-05-05T12:11:00.437Z,14.70
2019-05-05T12:13:29.483Z,15.00
2019-05-05T12:16:00.380Z,15.10
2019-05-05T12:18:29.515Z,14.40
2019-05-05T12:20:58.586Z,14.10
2019-05-05T12:23:27.696Z,14.00
2019-05-05T12:26:01.144Z,14.10
2019-05-05T12:28:34.760Z,14.20
2019-05-05T12:31:11.328Z,14.10
2019-05-05T12:33:40.353Z,14.10
2019-05-05T12:36:09.492Z,14.20
2019-05-05T12:38:38.556Z,14.10
2019-05-05T12:41:07.596Z,13.70
2019-05-05T12:43:36.735Z,13.90
2019-05-05T12:46:07.479Z,13.60
2019-05-05T12:48:43.686Z,13.40
2019-05-05T12:51:14.609Z,13.50
2019-05-05T12:53:43.238Z,13.60
2019-05-05T12:56:14.487Z,13.40
2019-05-05T12:58:43.995Z,13.10
2019-05-05T13:01:15.544Z,13.50
2019-05-05T13:03:44.574Z,13.20
2019-05-05T13:07:04.977Z,13.60
2019-05-05T13:09:34.159Z,13.90
2019-05-05T13:12:04.528Z,15.10
2019-05-05T13:14:33.759Z,15.10
2019-05-05T13:17:03.626Z,14.30
2019-05-05T13:19:34.756Z,14.70
2019-05-05T13:22:25.472Z,14.70
2019-05-05T13:25:05.101Z,14.60
2019-05-05T13:27:35.795Z,14.60
2019-05-05T13:30:08.181Z,14.10
2019-05-05T13:32:37.367Z,13.90
2019-05-05T13:35:07.740Z,14.20
2019-05-05T13:37:36.788Z,14.80
2019-05-05T13:40:07.272Z,15.80
2019-05-05T13:42:36.315Z,16.10
2019-05-05T13:45:11.135Z,15.80
2019-05-05T13:47:40.187Z,15.60
2019-05-05T13:50:17.743Z,15.30
2019-05-05T13:52:46.793Z,15.20
2019-05-05T13:55:16.052Z,14.90
2019-05-05T13:57:45.103Z,15.30
2019-05-05T14:00:16.317Z,14.70
2019-05-05T14:02:45.355Z,14.30
2019-05-05T14:05:14.549Z,14.00
2019-05-05T14:07:43.793Z,13.60
2019-05-05T14:10:14.400Z,13.40
2019-05-05T14:12:43.847Z,13.60
2019-05-05T14:15:19.040Z,14.40
2019-05-05T14:17:48.319Z,14.80
2019-05-05T14:20:17.785Z,14.50
2019-05-05T14:22:46.832Z,14.00
2019-05-05T14:25:17.758Z,13.60
2019-05-05T14:27:46.878Z,13.40
2019-05-05T14:30:23.897Z,12.90
2019-05-05T14:32:54.430Z,12.80
2019-05-05T14:35:25.376Z,12.90
2019-05-05T14:37:56.063Z,12.90
2019-05-05T14:40:25.127Z,12.80
2019-05-05T14:42:54.184Z,12.30
2019-05-05T14:45:23.573Z,12.30
2019-05-05T14:47:53.524Z,12.20
2019-05-05T14:50:24.227Z,12.10
2019-05-05T14:52:53.629Z,12.40
2019-05-05T14:55:22.752Z,13.20
2019-05-05T14:57:53.474Z,13.60
2019-05-05T15:00:24.526Z,13.70
2019-05-05T15:02:54.484Z,13.20
2019-05-05T15:05:40.521Z,12.70
2019-05-05T15:08:19.912Z,12.40
2019-05-05T15:10:50.607Z,12.40
2019-05-05T15:13:21.147Z,12.40
2019-05-05T15:15:50.249Z,12.30
2019-05-05T15:18:19.308Z,12.60
2019-05-05T15:20:48.334Z,12.90
2019-05-05T15:23:17.360Z,12.80
2019-05-05T15:25:46.406Z,12.40
2019-05-05T15:28:15.431Z,13.00
2019-05-05T15:30:44.494Z,13.40
2019-05-05T15:33:13.873Z,13.10
2019-05-05T15:35:46.056Z,12.70
2019-05-05T15:38:13.889Z,12.10
2019-05-05T15:40:44.981Z,12.40
2019-05-05T15:43:14.438Z,12.40
2019-05-05T15:45:43.483Z,12.10
2019-05-05T15:48:13.980Z,12.20
2019-05-05T15:50:43.925Z,12.10
2019-05-05T15:53:14.379Z,12.20
2019-05-05T15:55:44.109Z,11.90
2019-05-05T15:58:14.197Z,12.10
2019-05-05T16:00:44.318Z,12.00
2019-05-05T16:03:13.625Z,12.30
2019-05-05T16:05:43.644Z,12.10
2019-05-05T16:08:14.116Z,11.80
2019-05-05T16:10:46.191Z,11.80
2019-05-05T16:13:14.112Z,11.60
2019-05-05T16:15:44.793Z,11.50
2019-05-05T16:18:18.400Z,11.90
2019-05-05T16:20:54.789Z,11.90
2019-05-05T16:23:28.231Z,11.90
2019-05-05T16:25:56.785Z,12.20
2019-05-05T16:28:25.843Z,12.70
2019-05-05T16:30:56.248Z,12.40
2019-05-05T16:33:25.401Z,12.40
2019-05-05T16:35:54.462Z,12.40
2019-05-05T16:38:24.055Z,12.60
2019-05-05T16:40:53.790Z,12.80
2019-05-05T16:43:24.728Z,12.30
2019-05-05T16:45:53.885Z,12.30
2019-05-05T16:48:25.379Z,12.20
2019-05-05T16:50:54.182Z,12.40
2019-05-05T16:53:35.784Z,12.60
2019-05-05T16:56:07.828Z,12.40
2019-05-05T16:58:36.934Z,12.30
2019-05-05T17:01:07.610Z,12.00
2019-05-05T17:03:36.648Z,11.70
2019-05-05T17:06:05.764Z,11.50
2019-05-05T17:08:34.804Z,11.20
2019-05-05T17:11:03.915Z,11.10
2019-05-05T17:13:44.095Z,11.10
2019-05-05T17:16:30.868Z,11.30
2019-05-05T17:19:01.539Z,11.40
2019-05-05T17:21:47.209Z,11.50
2019-05-05T17:24:16.352Z,11.30
2019-05-05T17:26:45.392Z,11.20
2019-05-05T17:29:14.702Z,10.90
2019-05-05T17:31:44.426Z,10.80
2019-05-05T17:34:13.823Z,10.80
2019-05-05T17:36:45.111Z,10.70
2019-05-05T17:39:13.810Z,10.50
2019-05-05T17:41:44.601Z,10.50
2019-05-05T17:44:15.344Z,10.40
2019-05-05T17:46:49.004Z,10.40
2019-05-05T17:49:22.916Z,10.20
2019-05-05T17:51:54.561Z,10.20
2019-05-05T17:54:36.656Z,10.10
2019-05-05T17:57:05.700Z,10.30
2019-05-05T17:59:34.747Z,10.20
2019-05-05T18:02:04.763Z,10.30
2019-05-05T18:04:34.073Z,10.30
2019-05-05T18:07:04.760Z,10.20
2019-05-05T18:09:53.785Z,10.10
2019-05-05T18:12:24.685Z,10.00
2019-05-05T18:14:58.045Z,9.90
2019-05-05T18:17:37.033Z,9.80
2019-05-05T18:20:06.998Z,9.70
2019-05-05T18:22:36.047Z,9.60
2019-05-05T18:25:06.221Z,9.50
2019-05-05T18:27:35.316Z,9.40
2019-05-05T18:30:06.078Z,9.40
2019-05-05T18:32:35.120Z,9.40
2019-05-05T18:35:06.753Z,9.30
2019-05-05T18:37:36.016Z,9.30
2019-05-05T18:40:06.652Z,9.10
2019-05-05T18:42:35.863Z,9.00
2019-05-05T18:45:08.863Z,8.90
2019-05-05T18:47:37.910Z,8.90
2019-05-05T18:50:07.479Z,8.90
2019-05-05T18:52:36.516Z,8.80
2019-05-05T18:55:07.025Z,8.90
2019-05-05T18:57:36.071Z,8.90
2019-05-05T19:00:09.936Z,8.90
2019-05-05T19:02:49.509Z,9.10
2019-05-05T19:05:29.356Z,9.20
2019-05-05T19:08:09.015Z,9.40
2019-05-05T19:10:38.116Z,9.50
2019-05-05T19:13:07.185Z,9.50
2019-05-05T19:15:36.278Z,9.30
2019-05-05T19:18:06.963Z,9.30
2019-05-05T19:20:44.421Z,9.10
2019-05-05T19:23:14.772Z,9.00
2019-05-05T19:25:44.854Z,8.80
2019-05-05T19:28:14.308Z,8.70
2019-05-05T19:30:44.060Z,8.60
2019-05-05T19:33:13.473Z,8.40
2019-05-05T19:35:46.912Z,8.30
2019-05-05T19:38:15.777Z,8.10
2019-05-05T19:40:45.087Z,7.90
2019-05-05T19:43:14.178Z,7.70
2019-05-05T19:45:44.817Z,7.80
2019-05-05T19:48:14.924Z,7.80
2019-05-05T19:50:51.650Z,7.90
2019-05-05T19:53:24.914Z,7.90
2019-05-05T19:55:54.853Z,7.90
2019-05-05T19:58:24.142Z,8.00
2019-05-05T20:00:54.953Z,7.90
2019-05-05T20:03:24.274Z,7.80
2019-05-05T20:05:54.056Z,7.90
2019-05-05T20:08:23.973Z,7.80
2019-05-05T20:10:54.191Z,7.90
2019-05-05T20:13:24.009Z,7.90
2019-05-05T20:16:04.521Z,7.80
2019-05-05T20:18:34.251Z,7.70
2019-05-05T20:21:06.835Z,7.50
2019-05-05T20:23:34.535Z,7.50
2019-05-05T20:26:03.954Z,7.50
2019-05-05T20:28:33.878Z,7.50
2019-05-05T20:31:03.698Z,7.40
2019-05-05T20:33:40.770Z,7.30
2019-05-05T20:36:11.532Z,7.30
2019-05-05T20:38:51.079Z,7.20
2019-05-05T20:41:21.411Z,7.30
2019-05-05T20:43:50.444Z,7.30
2019-05-05T20:46:19.561Z,7.10
2019-05-05T20:48:48.609Z,7.10
2019-05-05T20:51:17.745Z,7.10
2019-05-05T20:53:49.090Z,7.10
2019-05-05T20:56:17.538Z,7.20
2019-05-05T20:58:46.641Z,7.20
2019-05-05T21:01:15.689Z,7.00
2019-05-05T21:03:44.863Z,6.80
2019-05-05T21:06:14.040Z,6.70
2019-05-05T21:08:44.005Z,6.60
2019-05-05T21:11:14.156Z,6.50
2019-05-05T21:13:45.082Z,6.50
2019-05-05T21:16:14.400Z,6.50
2019-05-05T21:18:43.592Z,6.30
2019-05-05T21:21:14.284Z,6.20
2019-05-05T21:23:44.949Z,6.10
2019-05-05T21:26:18.613Z,6.10
2019-05-05T21:28:47.369Z,6.10
2019-05-05T21:31:16.412Z,6.30
2019-05-05T21:33:45.528Z,6.10
2019-05-05T21:36:14.772Z,6.10
2019-05-05T21:38:44.079Z,6.00
2019-05-05T21:41:13.872Z,5.90
2019-05-05T21:43:44.886Z,5.90
2019-05-05T21:46:13.892Z,5.90
2019-05-05T21:48:44.802Z,5.90
2019-05-05T21:51:30.084Z,6.00
2019-05-05T21:54:17.215Z,6.00
2019-05-05T21:57:04.461Z,6.00
2019-05-05T21:59:33.772Z,6.00
2019-05-05T22:02:03.950Z,5.80
2019-05-05T22:04:33.765Z,5.90
2019-05-05T22:07:03.731Z,5.80
2019-05-05T22:09:33.121Z,5.80
2019-05-05T22:12:04.019Z,5.90
2019-05-05T22:14:34.139Z,6.00
2019-05-05T22:17:04.083Z,5.90
2019-05-05T22:19:53.804Z,6.00
2019-05-05T22:22:24.258Z,6.00
2019-05-05T22:24:54.097Z,5.90
2019-05-05T22:27:23.764Z,5.90
2019-05-05T22:29:55.335Z,5.90
2019-05-05T22:32:24.949Z,6.00
2019-05-05T22:34:54.206Z,6.00
2019-05-05T22:37:23.664Z,6.00
2019-05-05T22:39:54.180Z,5.90
2019-05-05T22:42:24.642Z,5.90
2019-05-05T22:44:53.939Z,5.90
2019-05-05T22:47:23.664Z,6.00
2019-05-05T22:49:54.820Z,6.10
2019-05-05T22:52:25.444Z,6.30
2019-05-05T22:54:54.460Z,6.40
2019-05-05T22:57:24.747Z,6.40
2019-05-05T22:59:54.212Z,6.40
2019-05-05T23:02:25.037Z,6.50
2019-05-05T23:05:03.937Z,6.40
2019-05-05T23:07:34.968Z,6.40
2019-05-05T23:10:08.056Z,6.30
2019-05-05T23:12:37.169Z,6.20
2019-05-05T23:15:08.065Z,6.10
2019-05-05T23:17:38.752Z,6.10
2019-05-05T23:20:16.295Z,6.00
2019-05-05T23:22:47.180Z,6.00
2019-05-05T23:25:17.875Z,6.00
2019-05-05T23:27:47.297Z,6.00
2019-05-05T23:30:18.556Z,6.00
2019-05-05T23:32:48.488Z,6.10
2019-05-05T23:35:18.081Z,6.10
2019-05-05T23:37:47.208Z,6.20
2019-05-05T23:40:26.945Z,6.20
2019-05-05T23:42:55.994Z,6.30
2019-05-05T23:45:25.163Z,6.30
2019-05-05T23:47:54.757Z,6.40
2019-05-05T23:50:24.255Z,6.40
2019-05-05T23:52:54.406Z,6.30
2019-05-05T23:55:24.236Z,6.60
2019-05-05T23:57:54.640Z,6.60
